createdAt,value
2022-12-02T00:02:32.063Z,80.65
2022-12-02T00:05:21.697Z,80.82
2022-12-02T00:07:56.213Z,80.58
2022-12-02T00:10:30.851Z,80.34
2022-12-02T00:13:10.809Z,80.83
2022-12-02T00:15:44.458Z,80.48
2022-12-02T00:18:16.020Z,80.54
2022-12-02T00:20:43.877Z,80.34
2022-12-02T00:23:10.853Z,80.97
2022-12-02T00:25:37.388Z,80.93
2022-12-02T00:28:04.344Z,80.39
2022-12-02T00:30:30.775Z,80.80
2022-12-02T00:32:57.306Z,81.22
2022-12-02T00:35:24.565Z,80.88
2022-12-02T00:37:51.900Z,81.13
2022-12-02T00:40:18.531Z,81.05
2022-12-02T00:42:45.044Z,80.74
2022-12-02T00:45:30.839Z,81.12
2022-12-02T00:47:58.181Z,81.06
2022-12-02T00:50:24.762Z,81.08
2022-12-02T00:52:52.393Z,81.81
2022-12-02T00:55:19.025Z,81.59
2022-12-02T00:57:45.627Z,81.34
2022-12-02T01:00:12.650Z,81.22
2022-12-02T01:02:39.281Z,80.98
2022-12-02T01:05:06.803Z,81.11
2022-12-02T01:07:33.297Z,81.47
2022-12-02T01:10:00.190Z,81.34
2022-12-02T01:12:26.624Z,81.16
2022-12-02T01:14:53.170Z,81.41
2022-12-02T01:17:19.771Z,81.44
2022-12-02T01:19:46.319Z,81.79
2022-12-02T01:22:12.800Z,81.41
2022-12-02T01:24:39.211Z,81.33
2022-12-02T01:27:06.108Z,81.64
2022-12-02T01:29:32.517Z,81.25
2022-12-02T01:32:01.538Z,81.14
2022-12-02T01:34:28.056Z,81.30
2022-12-02T01:36:54.489Z,80.99
2022-12-02T01:39:20.899Z,81.18
2022-12-02T01:41:47.456Z,81.36
2022-12-02T01:44:14.179Z,81.12
2022-12-02T01:46:42.091Z,81.32
2022-12-02T01:49:08.784Z,81.27
2022-12-02T01:51:35.385Z,81.18
2022-12-02T01:54:02.150Z,81.25
2022-12-02T01:56:28.637Z,81.39
2022-12-02T01:58:55.085Z,81.30
2022-12-02T02:01:26.979Z,81.55
2022-12-02T02:03:53.961Z,81.15
2022-12-02T02:06:20.597Z,81.04
2022-12-02T02:08:47.124Z,80.99
2022-12-02T02:11:13.656Z,81.43
2022-12-02T02:13:40.634Z,80.72
2022-12-02T02:16:07.349Z,81.47
2022-12-02T02:18:35.082Z,81.70
2022-12-02T02:21:02.172Z,81.50
2022-12-02T02:23:28.660Z,81.43
2022-12-02T02:25:59.375Z,80.84
2022-12-02T02:28:33.859Z,81.14
2022-12-02T02:31:01.544Z,80.93
2022-12-02T02:33:35.393Z,81.59
2022-12-02T02:36:03.325Z,81.33
2022-12-02T02:38:30.705Z,81.48
2022-12-02T02:40:59.330Z,81.02
2022-12-02T02:43:28.808Z,80.48
2022-12-02T02:45:57.746Z,81.12
2022-12-02T02:48:28.280Z,81.02
2022-12-02T02:50:56.108Z,80.67
2022-12-02T02:53:26.566Z,80.54
2022-12-02T02:55:55.354Z,80.30
2022-12-02T02:58:25.111Z,81.10
2022-12-02T03:01:00.257Z,80.34
2022-12-02T03:03:30.863Z,80.67
2022-12-02T03:06:01.119Z,80.13
2022-12-02T03:08:32.051Z,80.00
2022-12-02T03:11:00.755Z,80.55
2022-12-02T03:13:30.637Z,80.64
2022-12-02T03:15:57.323Z,80.79
2022-12-02T03:18:24.196Z,80.80
2022-12-02T03:20:50.901Z,80.59
2022-12-02T03:23:17.646Z,80.70
2022-12-02T03:25:44.144Z,80.63
2022-12-02T03:28:11.966Z,80.83
2022-12-02T03:30:39.830Z,80.54
2022-12-02T03:33:06.524Z,80.62
2022-12-02T03:35:33.088Z,80.91
2022-12-02T03:37:59.755Z,80.29
2022-12-02T03:40:26.705Z,80.84
2022-12-02T03:42:53.879Z,80.39
2022-12-02T03:45:20.450Z,80.33
2022-12-02T03:47:46.901Z,80.77
2022-12-02T03:50:14.041Z,80.50
2022-12-02T03:52:41.114Z,80.54
2022-12-02T03:55:08.228Z,80.77
2022-12-02T03:57:35.287Z,80.58
2022-12-02T04:00:02.257Z,80.42
2022-12-02T04:02:39.047Z,81.05
2022-12-02T04:05:06.083Z,81.29
2022-12-02T04:07:32.582Z,80.71
2022-12-02T04:09:59.035Z,80.73
2022-12-02T04:12:25.458Z,80.91
2022-12-02T04:14:52.038Z,81.44
2022-12-02T04:17:18.717Z,80.91
2022-12-02T04:19:45.126Z,81.54
2022-12-02T04:22:11.600Z,80.97
2022-12-02T04:24:38.196Z,80.65
2022-12-02T04:27:04.665Z,81.48
2022-12-02T04:29:31.088Z,81.24
2022-12-02T04:31:57.567Z,80.95
2022-12-02T04:34:24.074Z,81.13
2022-12-02T04:36:50.475Z,81.06
2022-12-02T04:39:16.876Z,81.42
2022-12-02T04:41:43.496Z,81.16
2022-12-02T04:44:12.603Z,81.51
2022-12-02T04:46:43.107Z,81.43
2022-12-02T04:49:09.582Z,81.39
2022-12-02T04:51:35.992Z,80.71
2022-12-02T04:54:02.407Z,80.64
2022-12-02T04:56:28.822Z,81.35
2022-12-02T04:58:55.272Z,80.47
2022-12-02T05:01:21.709Z,80.31
2022-12-02T05:03:48.171Z,81.09
2022-12-02T05:06:14.604Z,80.66
2022-12-02T05:08:41.039Z,81.08
2022-12-02T05:11:07.470Z,81.56
2022-12-02T05:13:33.987Z,81.52
2022-12-02T05:16:00.457Z,81.28
2022-12-02T05:18:26.908Z,80.76
2022-12-02T05:20:53.309Z,81.12
2022-12-02T05:23:19.727Z,80.98
2022-12-02T05:25:46.205Z,80.77
2022-12-02T05:28:12.654Z,80.91
2022-12-02T05:30:39.352Z,80.85
2022-12-02T05:33:05.752Z,80.75
2022-12-02T05:35:32.148Z,80.87
2022-12-02T05:38:03.336Z,80.48
2022-12-02T05:40:31.677Z,80.67
2022-12-02T05:43:01.685Z,80.31
2022-12-02T05:45:28.131Z,80.29
2022-12-02T05:47:54.946Z,79.91
2022-12-02T05:50:22.807Z,80.61
2022-12-02T05:52:55.292Z,80.39
2022-12-02T05:55:22.381Z,80.26
2022-12-02T05:57:49.378Z,80.30
2022-12-02T06:00:23.509Z,80.37
2022-12-02T06:02:58.550Z,80.24
2022-12-02T06:05:29.457Z,80.55
2022-12-02T06:08:01.340Z,80.61
2022-12-02T06:10:32.466Z,79.87
2022-12-02T06:13:11.586Z,80.49
2022-12-02T06:15:39.680Z,80.39
2022-12-02T06:18:25.379Z,80.43
2022-12-02T06:20:55.738Z,80.21
2022-12-02T06:23:23.105Z,80.44
2022-12-02T06:25:51.867Z,80.56
2022-12-02T06:28:29.382Z,80.67
2022-12-02T06:31:09.363Z,80.45
2022-12-02T06:33:37.573Z,80.88
2022-12-02T06:36:11.030Z,80.62
2022-12-02T06:38:49.169Z,80.69
2022-12-02T06:41:20.649Z,80.74
2022-12-02T06:44:07.180Z,80.96
2022-12-02T06:46:35.528Z,80.65
2022-12-02T06:49:19.668Z,80.73
2022-12-02T06:51:47.396Z,80.25
2022-12-02T06:54:21.132Z,80.82
2022-12-02T06:56:49.461Z,80.70
2022-12-02T06:59:20.040Z,80.42
2022-12-02T07:01:46.756Z,80.46
2022-12-02T07:04:31.725Z,80.13
2022-12-02T07:07:02.498Z,80.46
2022-12-02T07:09:31.720Z,80.15
2022-12-02T07:11:59.386Z,80.44
2022-12-02T07:14:32.877Z,80.69
2022-12-02T07:17:13.797Z,80.94
2022-12-02T07:19:43.694Z,80.55
2022-12-02T07:22:19.304Z,80.80
2022-12-02T07:25:20.026Z,80.38
2022-12-02T07:27:48.534Z,80.42
2022-12-02T07:30:31.062Z,80.26
2022-12-02T07:32:58.026Z,80.91
2022-12-02T07:35:24.887Z,80.49
2022-12-02T07:37:51.568Z,80.93
2022-12-02T07:40:18.973Z,81.22
2022-12-02T07:42:45.540Z,81.18
2022-12-02T07:45:17.321Z,80.97
2022-12-02T07:47:43.898Z,80.60
2022-12-02T07:50:12.219Z,80.87
2022-12-02T07:52:38.645Z,81.26
2022-12-02T07:55:07.522Z,80.83
2022-12-02T07:57:34.593Z,80.89
2022-12-02T08:00:03.911Z,80.82
2022-12-02T08:02:38.647Z,80.39
2022-12-02T08:05:05.615Z,80.32
2022-12-02T08:07:32.152Z,80.78
2022-12-02T08:09:58.628Z,80.44
2022-12-02T08:12:25.182Z,80.71
2022-12-02T08:14:51.797Z,80.65
2022-12-02T08:17:18.294Z,80.23
2022-12-02T08:19:44.708Z,80.61
2022-12-02T08:22:11.131Z,80.75
2022-12-02T08:24:37.954Z,80.39
2022-12-02T08:27:04.441Z,79.92
2022-12-02T08:29:31.321Z,80.47
2022-12-02T08:31:57.951Z,79.84
2022-12-02T08:34:24.427Z,80.49
2022-12-02T08:36:50.832Z,80.22
2022-12-02T08:39:17.579Z,79.80
2022-12-02T08:41:44.047Z,79.93
2022-12-02T08:44:10.628Z,80.19
2022-12-02T08:46:37.154Z,79.50
2022-12-02T08:49:06.237Z,79.73
2022-12-02T08:51:33.772Z,79.49
2022-12-02T08:54:00.488Z,79.16
2022-12-02T08:56:26.926Z,78.94
2022-12-02T08:58:53.349Z,79.00
2022-12-02T09:01:19.864Z,78.78
2022-12-02T09:03:46.332Z,78.46
2022-12-02T09:06:12.816Z,78.61
2022-12-02T09:08:39.366Z,78.57
2022-12-02T09:11:05.926Z,78.55
2022-12-02T09:13:32.375Z,78.98
2022-12-02T09:15:58.935Z,78.69
2022-12-02T09:18:25.535Z,78.68
2022-12-02T09:20:51.956Z,78.47
2022-12-02T09:23:18.435Z,78.68
2022-12-02T09:25:44.859Z,78.59
2022-12-02T09:28:11.286Z,78.67
2022-12-02T09:30:37.814Z,78.78
2022-12-02T09:33:04.306Z,78.92
2022-12-02T09:35:30.733Z,78.51
2022-12-02T09:37:57.287Z,78.62
2022-12-02T09:40:24.028Z,78.64
2022-12-02T09:42:52.098Z,78.79
2022-12-02T09:45:18.680Z,78.61
2022-12-02T09:47:45.172Z,78.59
2022-12-02T09:50:14.200Z,78.75
2022-12-02T09:52:40.890Z,78.59
2022-12-02T09:55:13.258Z,78.40
2022-12-02T09:57:40.705Z,78.01
2022-12-02T10:00:12.653Z,77.66
2022-12-02T10:02:42.255Z,77.50
2022-12-02T10:05:16.252Z,78.12
2022-12-02T10:07:44.537Z,77.96
2022-12-02T10:10:19.504Z,76.81
2022-12-02T10:12:47.111Z,77.13
2022-12-02T10:15:19.781Z,77.14
2022-12-02T10:17:46.916Z,77.09
2022-12-02T10:20:22.893Z,76.81
2022-12-02T10:23:10.559Z,76.72
2022-12-02T10:25:39.405Z,77.42
2022-12-02T10:28:19.354Z,77.49
2022-12-02T10:30:51.069Z,77.00
2022-12-02T10:33:17.590Z,76.43
2022-12-02T10:35:49.990Z,76.99
2022-12-02T10:38:43.341Z,76.84
2022-12-02T10:41:12.739Z,76.60
2022-12-02T10:43:39.852Z,76.73
2022-12-02T10:46:06.350Z,76.42
2022-12-02T10:48:32.886Z,76.33
2022-12-02T10:50:59.754Z,75.83
2022-12-02T10:53:29.189Z,75.14
2022-12-02T10:55:57.079Z,75.29
2022-12-02T10:58:30.201Z,75.72
2022-12-02T11:00:58.332Z,75.86
2022-12-02T11:03:25.898Z,76.33
2022-12-02T11:05:52.852Z,76.51
2022-12-02T11:08:21.238Z,75.41
2022-12-02T11:11:08.503Z,75.79
2022-12-02T11:13:53.064Z,75.84
2022-12-02T11:16:28.657Z,75.60
2022-12-02T11:19:06.103Z,75.85
2022-12-02T11:21:44.154Z,76.19
2022-12-02T11:24:28.819Z,76.02
2022-12-02T11:27:04.572Z,75.58
2022-12-02T11:29:40.325Z,75.59
2022-12-02T11:32:38.852Z,75.77
2022-12-02T11:35:19.224Z,75.11
2022-12-02T11:37:47.639Z,76.17
2022-12-02T11:40:17.626Z,75.90
2022-12-02T11:42:45.258Z,76.02
2022-12-02T11:45:17.608Z,75.94
2022-12-02T11:47:46.545Z,76.02
2022-12-02T11:50:15.949Z,76.19
2022-12-02T11:52:52.036Z,75.91
2022-12-02T11:55:35.040Z,76.55
2022-12-02T11:58:03.360Z,76.13
2022-12-02T12:00:38.168Z,75.77
2022-12-02T12:03:14.853Z,76.09
2022-12-02T12:05:44.333Z,76.35
2022-12-02T12:08:25.184Z,76.67
2022-12-02T12:11:17.395Z,76.93
2022-12-02T12:14:18.106Z,75.86
2022-12-02T12:16:47.465Z,76.26
2022-12-02T12:19:14.027Z,75.93
2022-12-02T12:21:42.388Z,76.52
2022-12-02T12:24:18.279Z,76.52
2022-12-02T12:26:48.599Z,76.56
2022-12-02T12:29:16.235Z,76.70
2022-12-02T12:31:42.894Z,76.53
2022-12-02T12:34:10.613Z,75.79
2022-12-02T12:36:38.103Z,76.38
2022-12-02T12:39:06.848Z,75.88
2022-12-02T12:41:59.331Z,75.17
2022-12-02T12:44:23.467Z,75.18
2022-12-02T12:46:53.257Z,75.86
2022-12-02T12:49:19.729Z,75.17
2022-12-02T12:51:46.204Z,74.91
2022-12-02T12:54:12.623Z,75.92
2022-12-02T12:56:39.024Z,76.32
2022-12-02T12:59:05.458Z,76.08
2022-12-02T13:01:31.896Z,76.25
2022-12-02T13:03:58.375Z,76.72
2022-12-02T13:06:24.829Z,76.50
2022-12-02T13:08:51.244Z,76.09
2022-12-02T13:11:17.666Z,76.58
2022-12-02T13:13:44.072Z,76.95
2022-12-02T13:16:10.542Z,77.17
2022-12-02T13:18:37.033Z,77.04
2022-12-02T13:21:03.688Z,77.31
2022-12-02T13:23:30.132Z,76.74
2022-12-02T13:25:56.604Z,76.97
2022-12-02T13:28:23.079Z,76.82
2022-12-02T13:30:52.002Z,77.51
2022-12-02T13:33:18.514Z,76.72
2022-12-02T13:35:44.923Z,76.44
2022-12-02T13:38:11.459Z,76.50
2022-12-02T13:40:37.941Z,76.13
2022-12-02T13:43:04.385Z,75.76
2022-12-02T13:45:30.817Z,75.66
2022-12-02T13:47:58.445Z,75.83
2022-12-02T13:50:24.839Z,76.09
2022-12-02T13:52:51.325Z,76.29
2022-12-02T13:55:18.024Z,75.34
2022-12-02T13:57:44.436Z,75.38
2022-12-02T14:00:12.443Z,75.30
2022-12-02T14:02:42.371Z,75.12
2022-12-02T14:05:09.794Z,75.40
2022-12-02T14:07:36.933Z,75.67
2022-12-02T14:10:05.434Z,76.21
2022-12-02T14:12:31.925Z,76.19
2022-12-02T14:14:58.373Z,76.06
2022-12-02T14:17:24.821Z,75.98
2022-12-02T14:19:51.524Z,76.76
2022-12-02T14:22:18.301Z,76.45
2022-12-02T14:24:48.855Z,76.13
2022-12-02T14:27:16.064Z,76.02
2022-12-02T14:29:42.603Z,76.54
2022-12-02T14:32:09.803Z,76.76
2022-12-02T14:34:36.297Z,76.46
2022-12-02T14:37:02.809Z,76.70
2022-12-02T14:39:29.222Z,76.96
2022-12-02T14:41:55.628Z,76.92
2022-12-02T14:44:22.233Z,76.89
2022-12-02T14:46:48.771Z,77.25
2022-12-02T14:52:01.747Z,76.79
2022-12-02T14:54:28.157Z,77.68
2022-12-02T14:56:54.593Z,77.80
2022-12-02T14:59:21.139Z,78.41
2022-12-02T15:01:47.683Z,77.93
2022-12-02T15:04:14.209Z,77.96
2022-12-02T15:06:40.640Z,78.32
2022-12-02T15:09:07.080Z,78.35
2022-12-02T15:11:33.501Z,78.26
2022-12-02T15:13:59.919Z,77.93
2022-12-02T15:16:26.437Z,77.85
2022-12-02T15:18:53.002Z,77.63
2022-12-02T15:21:19.518Z,77.67
2022-12-02T15:23:45.980Z,77.83
2022-12-02T15:26:12.415Z,77.98
2022-12-02T15:28:38.909Z,77.97
2022-12-02T15:31:05.493Z,78.39
2022-12-02T15:33:31.962Z,78.39
2022-12-02T15:35:58.397Z,77.99
2022-12-02T15:38:24.982Z,77.48
2022-12-02T15:40:51.470Z,78.60
2022-12-02T15:43:17.913Z,78.75
2022-12-02T15:45:45.049Z,78.75
2022-12-02T15:48:11.517Z,78.22
2022-12-02T15:50:37.968Z,78.68
2022-12-02T15:53:04.363Z,78.02
2022-12-02T15:55:30.768Z,78.69
2022-12-02T15:57:57.188Z,78.48
2022-12-02T16:00:23.678Z,78.46
2022-12-02T16:02:55.901Z,78.46
2022-12-02T16:05:23.209Z,78.74
2022-12-02T16:07:49.781Z,79.07
2022-12-02T16:10:16.432Z,78.90
2022-12-02T16:12:42.866Z,79.16
2022-12-02T16:15:10.197Z,79.15
2022-12-02T16:17:37.165Z,79.34
2022-12-02T16:20:05.193Z,79.44
2022-12-02T16:22:31.693Z,79.26
2022-12-02T16:24:58.091Z,79.12
2022-12-02T16:27:24.501Z,78.27
2022-12-02T16:29:50.925Z,78.93
2022-12-02T16:32:20.536Z,79.00
2022-12-02T16:34:47.614Z,78.90
2022-12-02T16:37:17.208Z,78.92
2022-12-02T16:39:43.745Z,78.41
2022-12-02T16:42:10.274Z,78.83
2022-12-02T16:44:36.693Z,79.24
2022-12-02T16:47:04.286Z,79.01
2022-12-02T16:49:31.020Z,79.18
2022-12-02T16:51:58.571Z,78.89
2022-12-02T16:54:25.601Z,79.19
2022-12-02T16:56:55.961Z,79.03
2022-12-02T16:59:23.972Z,79.49
2022-12-02T17:01:50.590Z,79.26
2022-12-02T17:04:17.159Z,79.29
2022-12-02T17:06:43.693Z,79.01
2022-12-02T17:09:10.138Z,79.21
2022-12-02T17:11:36.569Z,79.24
2022-12-02T17:14:03.118Z,80.02
2022-12-02T17:16:29.569Z,80.26
2022-12-02T17:18:56.056Z,80.07
2022-12-02T17:21:22.730Z,79.29
2022-12-02T17:23:49.267Z,80.11
2022-12-02T17:26:15.914Z,80.27
2022-12-02T17:28:42.351Z,80.27
2022-12-02T17:31:08.790Z,79.42
2022-12-02T17:33:35.230Z,80.00
2022-12-02T17:36:01.673Z,79.44
2022-12-02T17:38:28.304Z,79.32
2022-12-02T17:41:10.168Z,79.53
2022-12-02T17:43:39.825Z,79.11
2022-12-02T17:46:06.943Z,79.62
2022-12-02T17:48:33.551Z,79.59
2022-12-02T17:51:00.094Z,79.97
2022-12-02T17:53:27.103Z,79.78
2022-12-02T17:55:53.681Z,80.15
2022-12-02T17:58:20.630Z,79.66
2022-12-02T18:00:47.117Z,79.55
2022-12-02T18:03:13.627Z,79.44
2022-12-02T18:05:40.202Z,79.94
2022-12-02T18:08:06.752Z,79.64
2022-12-02T18:10:33.267Z,79.29
2022-12-02T18:12:59.675Z,79.79
2022-12-02T18:15:26.340Z,79.25
2022-12-02T18:17:52.771Z,79.16
2022-12-02T18:20:19.195Z,79.45
2022-12-02T18:22:45.906Z,79.61
2022-12-02T18:25:12.659Z,79.38
2022-12-02T18:27:39.116Z,79.35
2022-12-02T18:30:06.281Z,79.42
2022-12-02T18:32:32.804Z,79.15
2022-12-02T18:34:59.230Z,78.98
2022-12-02T18:37:25.657Z,79.58
2022-12-02T18:39:52.091Z,79.68
2022-12-02T18:42:18.520Z,79.79
2022-12-02T18:44:44.958Z,79.39
2022-12-02T18:47:11.860Z,79.92
2022-12-02T18:49:42.559Z,79.76
2022-12-02T18:52:09.755Z,79.79
2022-12-02T18:54:36.178Z,80.35
2022-12-02T18:57:03.032Z,79.77
2022-12-02T18:59:29.490Z,79.91
2022-12-02T19:01:56.409Z,80.01
2022-12-02T19:04:22.994Z,80.36
2022-12-02T19:06:49.445Z,80.07
2022-12-02T19:09:15.880Z,80.19
2022-12-02T19:11:42.292Z,80.18
2022-12-02T19:14:08.707Z,79.74
2022-12-02T19:16:35.193Z,80.23
2022-12-02T19:19:01.681Z,79.71
2022-12-02T19:21:29.132Z,80.27
2022-12-02T19:23:55.600Z,79.97
2022-12-02T19:26:23.151Z,79.21
2022-12-02T19:28:49.644Z,79.82
2022-12-02T19:31:16.167Z,79.74
2022-12-02T19:33:42.811Z,79.64
2022-12-02T19:36:09.353Z,79.97
2022-12-02T19:38:35.808Z,79.84
2022-12-02T19:41:02.293Z,79.83
2022-12-02T19:43:33.866Z,79.57
2022-12-02T19:46:02.061Z,79.38
2022-12-02T19:48:28.737Z,80.01
2022-12-02T19:50:55.741Z,79.26
2022-12-02T19:53:22.290Z,79.04
2022-12-02T19:55:48.758Z,79.80
2022-12-02T19:58:15.280Z,79.62
2022-12-02T20:00:41.764Z,79.54
2022-12-02T20:03:08.358Z,79.52
2022-12-02T20:05:34.888Z,79.96
2022-12-02T20:08:01.481Z,79.38
2022-12-02T20:10:28.037Z,79.33
2022-12-02T20:12:54.576Z,79.34
2022-12-02T20:15:21.024Z,78.79
2022-12-02T20:17:47.622Z,79.10
2022-12-02T20:20:15.340Z,78.77
2022-12-02T20:22:42.244Z,78.69
2022-12-02T20:25:09.668Z,79.13
2022-12-02T20:27:36.299Z,78.73
2022-12-02T20:30:04.687Z,78.95
2022-12-02T20:32:31.794Z,78.81
2022-12-02T20:34:58.209Z,79.20
2022-12-02T20:37:24.672Z,78.71
2022-12-02T20:39:51.147Z,78.96
2022-12-02T20:42:17.604Z,79.02
2022-12-02T20:44:48.021Z,78.44
2022-12-02T20:47:17.417Z,78.92
2022-12-02T20:49:43.840Z,78.45
2022-12-02T20:52:10.277Z,78.37
2022-12-02T20:54:36.713Z,78.57
2022-12-02T20:57:03.256Z,78.89
2022-12-02T20:59:29.766Z,78.77
2022-12-02T21:01:56.307Z,78.44
2022-12-02T21:04:22.811Z,78.67
2022-12-02T21:06:49.211Z,78.89
2022-12-02T21:09:15.875Z,78.49
2022-12-02T21:11:42.372Z,78.29
2022-12-02T21:14:09.221Z,78.31
2022-12-02T21:16:35.750Z,77.83
2022-12-02T21:19:02.284Z,78.49
2022-12-02T21:21:28.819Z,78.04
2022-12-02T21:24:00.086Z,77.38
2022-12-02T21:26:29.877Z,77.64
2022-12-02T21:28:56.320Z,77.67
2022-12-02T21:31:22.824Z,78.06
2022-12-02T21:33:49.473Z,78.29
2022-12-02T21:36:15.912Z,78.30
2022-12-02T21:38:42.372Z,78.21
2022-12-02T21:41:08.807Z,78.83
2022-12-02T21:43:35.239Z,78.74
2022-12-02T21:46:01.817Z,78.98
2022-12-02T21:48:28.311Z,78.88
2022-12-02T21:50:54.864Z,78.45
2022-12-02T21:53:21.450Z,78.62
2022-12-02T21:55:47.896Z,79.31
2022-12-02T21:58:14.330Z,78.62
2022-12-02T22:00:40.821Z,79.19
2022-12-02T22:03:11.799Z,78.99
2022-12-02T22:05:41.082Z,79.14
2022-12-02T22:08:07.634Z,79.13
2022-12-02T22:10:34.729Z,79.42
2022-12-02T22:13:01.327Z,79.91
2022-12-02T22:15:27.800Z,78.96
2022-12-02T22:17:54.285Z,79.46
2022-12-02T22:20:21.121Z,79.73
2022-12-02T22:22:47.594Z,79.46
2022-12-02T22:25:14.354Z,79.83
2022-12-02T22:27:41.280Z,80.60
2022-12-02T22:30:08.519Z,80.51
2022-12-02T22:32:35.536Z,80.55
2022-12-02T22:35:03.091Z,80.70
2022-12-02T22:37:29.824Z,80.74
2022-12-02T22:39:56.277Z,80.23
2022-12-02T22:42:22.738Z,80.63
2022-12-02T22:44:49.205Z,80.28
2022-12-02T22:47:16.046Z,80.28
2022-12-02T22:49:43.022Z,81.00
2022-12-02T22:52:09.669Z,80.25
2022-12-02T22:54:36.410Z,79.98
2022-12-02T22:57:02.873Z,80.62
2022-12-02T22:59:29.304Z,79.44
2022-12-02T23:01:56.467Z,79.67
2022-12-02T23:04:23.029Z,80.24
2022-12-02T23:06:49.769Z,79.75
2022-12-02T23:09:16.934Z,80.61
2022-12-02T23:11:43.736Z,80.07
2022-12-02T23:14:10.452Z,80.45
2022-12-02T23:16:37.196Z,80.06
2022-12-02T23:19:03.713Z,79.92
2022-12-02T23:21:30.210Z,80.09
2022-12-02T23:23:56.999Z,80.06
2022-12-02T23:26:24.028Z,80.81
2022-12-02T23:28:51.037Z,79.45
2022-12-02T23:31:17.708Z,79.65
2022-12-02T23:33:44.649Z,79.46
2022-12-02T23:36:11.228Z,79.64
2022-12-02T23:38:38.051Z,79.82
2022-12-02T23:41:04.919Z,79.49
2022-12-02T23:43:31.789Z,78.82
2022-12-02T23:45:58.412Z,79.17
2022-12-02T23:48:25.024Z,79.05
2022-12-02T23:50:51.505Z,79.19
2022-12-02T23:53:17.945Z,78.78
2022-12-02T23:55:44.416Z,79.11
2022-12-02T23:58:10.942Z,79.48
